Lake Swannanoa, New Jersey
Current Conditions -  °F | °C
As of 11:53 PM on Saturday 25 Oct 2014 (Local Time) from KFWN Reporting Station
Overcast Overcast  
Wind Chill: 58°   Ceiling: 8000
Heat Index: 58°   Visibility: 10mi
Dew Point: 47°   Wind: 3mph
Humidity: 67%   Direction: NA
Pressure: 29.57"   Gusts: NA
Location:  41.0321°N, 74.5162°W
Report Text: KFWN 260353Z AUTO VRB03KT 10SM OVC080 14/08 A2957 RMK AO2 RAB28E48 SLP012 P0000 T01440083
Loading
Personal Weather Stations






























Interactive Weather Map
Tropical Storm Tracking
New forecast layout! Learn more

10-Day Weather Forecast

Advertisements
Track Severe Weather on mobile